EYKA/KUN METAR and TAF weather

Enter ICAO airport designator
Station Type Date Time Source
EYKA METAR 2020/09/20 14:20 UTC NOAA

EYKA 201420Z VRB02KT CAVOK 17/06 Q1022


Station Type Date Time Source
EYKA Decoded METAR 2020/09/20 14:20 UTC NOAA

Kaunas, Lithuania (EYKA) 54-54N 023-55-12E
Sep 20, 2020 - 10:20 AM EDT / 2020.09.20 1420 UTC
Wind: Variable at 2 MPH (2 KT):0
Visibility: greater than 7 mile(s):0
Temperature: 62 F (17 C)
Dew Point: 42 F (6 C)
Relative Humidity: 48%
Pressure (altimeter): 30.18 in. Hg (1022 hPa)
ob: EYKA 201420Z VRB02KT CAVOK 17/06 Q1022
cycle: 14

Station Type Date Time Source
EYKA TAF 2020/09/20 12:09 UTC NOAA

TAF TAF EYKA 201104Z 2012/2112 VRB04KT 7000 NSC
BECMG 2015/2016 16008KT
BECMG 2018/2019 3000 BR SCT008
TEMPO 2020/2106 0500 FG VV002
BECMG 2107/2108 22018KT 7000 NSW BKN020

Example: see airport list